sensor_id;sensor_type;location;lat;lon;timestamp;P1;durP1;ratioP1;P2;durP2;ratioP2
66707;SDS011;53622;0.000;0.000;2023-04-25T00:01:15;0.93;;;0.85;;
66707;SDS011;53622;0.000;0.000;2023-04-25T00:03:44;1.23;;;0.90;;
66707;SDS011;53622;0.000;0.000;2023-04-25T00:06:14;2.08;;;0.85;;
66707;SDS011;53622;0.000;0.000;2023-04-25T00:08:44;1.20;;;0.70;;
66707;SDS011;53622;0.000;0.000;2023-04-25T00:11:14;0.80;;;0.80;;
66707;SDS011;53622;0.000;0.000;2023-04-25T00:13:43;1.65;;;1.00;;
66707;SDS011;53622;0.000;0.000;2023-04-25T00:16:15;0.93;;;0.85;;
66707;SDS011;53622;0.000;0.000;2023-04-25T00:18:44;1.30;;;0.85;;
66707;SDS011;53622;0.000;0.000;2023-04-25T00:21:18;1.00;;;0.70;;
66707;SDS011;53622;0.000;0.000;2023-04-25T00:23:49;0.75;;;0.73;;
66707;SDS011;53622;0.000;0.000;2023-04-25T00:26:19;2.03;;;1.00;;
66707;SDS011;53622;0.000;0.000;2023-04-25T00:28:48;1.17;;;0.70;;
66707;SDS011;53622;0.000;0.000;2023-04-25T00:31:19;2.35;;;0.90;;
66707;SDS011;53622;0.000;0.000;2023-04-25T00:33:48;1.30;;;0.93;;
66707;SDS011;53622;0.000;0.000;2023-04-25T00:36:18;2.40;;;0.70;;
66707;SDS011;53622;0.000;0.000;2023-04-25T00:38:47;0.80;;;0.80;;
66707;SDS011;53622;0.000;0.000;2023-04-25T00:41:17;0.95;;;0.80;;
66707;SDS011;53622;0.000;0.000;2023-04-25T00:43:46;3.17;;;0.90;;
66707;SDS011;53622;0.000;0.000;2023-04-25T00:46:17;1.70;;;1.08;;
66707;SDS011;53622;0.000;0.000;2023-04-25T00:48:48;0.70;;;0.70;;
66707;SDS011;53622;0.000;0.000;2023-04-25T00:51:19;1.70;;;0.93;;
66707;SDS011;53622;0.000;0.000;2023-04-25T00:53:49;1.02;;;0.80;;
66707;SDS011;53622;0.000;0.000;2023-04-25T00:56:19;0.68;;;0.68;;
66707;SDS011;53622;0.000;0.000;2023-04-25T00:58:49;0.88;;;0.73;;
66707;SDS011;53622;0.000;0.000;2023-04-25T01:01:23;1.25;;;0.90;;
66707;SDS011;53622;0.000;0.000;2023-04-25T01:03:52;0.90;;;0.82;;
66707;SDS011;53622;0.000;0.000;2023-04-25T01:06:23;1.42;;;1.10;;
66707;SDS011;53622;0.000;0.000;2023-04-25T01:08:52;1.50;;;0.95;;
66707;SDS011;53622;0.000;0.000;2023-04-25T01:11:22;2.15;;;1.42;;
66707;SDS011;53622;0.000;0.000;2023-04-25T01:13:51;1.52;;;0.70;;
66707;SDS011;53622;0.000;0.000;2023-04-25T01:16:21;1.20;;;0.70;;
66707;SDS011;53622;0.000;0.000;2023-04-25T01:18:52;0.70;;;0.70;;
66707;SDS011;53622;0.000;0.000;2023-04-25T01:21:23;1.67;;;0.85;;
66707;SDS011;53622;0.000;0.000;2023-04-25T01:23:55;0.80;;;0.75;;
66707;SDS011;53622;0.000;0.000;2023-04-25T01:26:25;2.47;;;0.93;;
66707;SDS011;53622;0.000;0.000;2023-04-25T01:28:55;1.02;;;0.90;;
66707;SDS011;53622;0.000;0.000;2023-04-25T01:31:25;1.10;;;1.00;;
66707;SDS011;53622;0.000;0.000;2023-04-25T01:33:56;1.05;;;0.65;;
66707;SDS011;53622;0.000;0.000;2023-04-25T01:36:29;2.78;;;1.15;;
66707;SDS011;53622;0.000;0.000;2023-04-25T01:38:59;0.80;;;0.80;;
66707;SDS011;53622;0.000;0.000;2023-04-25T01:41:30;1.52;;;0.70;;
66707;SDS011;53622;0.000;0.000;2023-04-25T01:44:00;1.58;;;0.82;;
66707;SDS011;53622;0.000;0.000;2023-04-25T01:46:30;1.00;;;0.90;;
66707;SDS011;53622;0.000;0.000;2023-04-25T01:48:59;1.58;;;0.93;;
66707;SDS011;53622;0.000;0.000;2023-04-25T01:51:31;1.05;;;0.63;;
66707;SDS011;53622;0.000;0.000;2023-04-25T01:54:01;0.93;;;0.70;;
66707;SDS011;53622;0.000;0.000;2023-04-25T01:56:30;0.80;;;0.70;;
66707;SDS011;53622;0.000;0.000;2023-04-25T01:59:00;1.05;;;0.80;;
66707;SDS011;53622;0.000;0.000;2023-04-25T02:01:52;0.68;;;0.68;;
66707;SDS011;53622;0.000;0.000;2023-04-25T02:04:27;0.98;;;0.73;;
66707;SDS011;53622;0.000;0.000;2023-04-25T02:06:58;1.33;;;0.80;;
66707;SDS011;53622;0.000;0.000;2023-04-25T02:09:37;0.80;;;0.80;;
66707;SDS011;53622;0.000;0.000;2023-04-25T02:12:07;1.00;;;0.90;;
66707;SDS011;53622;0.000;0.000;2023-04-25T02:14:56;0.70;;;0.70;;
66707;SDS011;53622;0.000;0.000;2023-04-25T02:17:41;0.70;;;0.70;;
66707;SDS011;53622;0.000;0.000;2023-04-25T02:20:12;0.65;;;0.65;;
66707;SDS011;53622;0.000;0.000;2023-04-25T02:22:44;1.60;;;1.00;;
66707;SDS011;53622;0.000;0.000;2023-04-25T02:25:13;1.33;;;0.70;;
66707;SDS011;53622;0.000;0.000;2023-04-25T02:27:43;1.00;;;0.80;;
66707;SDS011;53622;0.000;0.000;2023-04-25T02:30:13;1.38;;;0.70;;
66707;SDS011;53622;0.000;0.000;2023-04-25T02:32:42;1.02;;;0.82;;
66707;SDS011;53622;0.000;0.000;2023-04-25T02:35:12;1.10;;;0.73;;
66707;SDS011;53622;0.000;0.000;2023-04-25T02:37:42;0.80;;;0.80;;
66707;SDS011;53622;0.000;0.000;2023-04-25T02:40:13;0.90;;;0.70;;
66707;SDS011;53622;0.000;0.000;2023-04-25T02:42:42;0.95;;;0.75;;
66707;SDS011;53622;0.000;0.000;2023-04-25T02:45:12;0.90;;;0.90;;
66707;SDS011;53622;0.000;0.000;2023-04-25T02:47:42;0.80;;;0.75;;
66707;SDS011;53622;0.000;0.000;2023-04-25T02:50:11;0.75;;;0.70;;
66707;SDS011;53622;0.000;0.000;2023-04-25T02:52:41;0.93;;;0.70;;
66707;SDS011;53622;0.000;0.000;2023-04-25T02:55:22;1.10;;;1.00;;
66707;SDS011;53622;0.000;0.000;2023-04-25T02:57:54;1.98;;;1.23;;
66707;SDS011;53622;0.000;0.000;2023-04-25T03:00:36;0.77;;;0.73;;
66707;SDS011;53622;0.000;0.000;2023-04-25T03:03:05;1.85;;;0.80;;
66707;SDS011;53622;0.000;0.000;2023-04-25T03:05:35;1.17;;;1.08;;
66707;SDS011;53622;0.000;0.000;2023-04-25T03:08:04;1.02;;;0.93;;
66707;SDS011;53622;0.000;0.000;2023-04-25T03:10:36;0.95;;;0.70;;
66707;SDS011;53622;0.000;0.000;2023-04-25T03:13:08;1.33;;;0.90;;
66707;SDS011;53622;0.000;0.000;2023-04-25T03:15:38;1.13;;;0.90;;
66707;SDS011;53622;0.000;0.000;2023-04-25T03:18:07;1.08;;;0.70;;
66707;SDS011;53622;0.000;0.000;2023-04-25T03:20:39;1.38;;;0.80;;
66707;SDS011;53622;0.000;0.000;2023-04-25T03:23:09;0.88;;;0.70;;
66707;SDS011;53622;0.000;0.000;2023-04-25T03:25:42;1.58;;;0.80;;
66707;SDS011;53622;0.000;0.000;2023-04-25T03:28:11;1.10;;;0.68;;
66707;SDS011;53622;0.000;0.000;2023-04-25T03:30:41;1.20;;;1.10;;
66707;SDS011;53622;0.000;0.000;2023-04-25T03:33:10;0.90;;;0.90;;
66707;SDS011;53622;0.000;0.000;2023-04-25T03:35:39;1.00;;;0.90;;
66707;SDS011;53622;0.000;0.000;2023-04-25T03:38:10;0.95;;;0.88;;
66707;SDS011;53622;0.000;0.000;2023-04-25T03:40:41;1.00;;;0.80;;
66707;SDS011;53622;0.000;0.000;2023-04-25T03:43:18;1.70;;;0.90;;
66707;SDS011;53622;0.000;0.000;2023-04-25T03:45:53;1.15;;;0.90;;
66707;SDS011;53622;0.000;0.000;2023-04-25T03:48:23;0.90;;;0.90;;
66707;SDS011;53622;0.000;0.000;2023-04-25T03:50:53;1.40;;;0.90;;
66707;SDS011;53622;0.000;0.000;2023-04-25T03:53:23;1.05;;;0.95;;
66707;SDS011;53622;0.000;0.000;2023-04-25T03:56:24;2.20;;;1.05;;
66707;SDS011;53622;0.000;0.000;2023-04-25T03:59:00;1.58;;;1.05;;
66707;SDS011;53622;0.000;0.000;2023-04-25T04:01:30;2.08;;;1.15;;
66707;SDS011;53622;0.000;0.000;2023-04-25T04:03:59;1.65;;;0.93;;
66707;SDS011;53622;0.000;0.000;2023-04-25T04:06:30;1.00;;;0.90;;
66707;SDS011;53622;0.000;0.000;2023-04-25T04:09:09;1.42;;;0.95;;
66707;SDS011;53622;0.000;0.000;2023-04-25T04:11:43;1.40;;;0.75;;
66707;SDS011;53622;0.000;0.000;2023-04-25T04:14:13;2.28;;;1.00;;
66707;SDS011;53622;0.000;0.000;2023-04-25T04:16:44;0.80;;;0.80;;
66707;SDS011;53622;0.000;0.000;2023-04-25T04:19:14;2.50;;;1.27;;
66707;SDS011;53622;0.000;0.000;2023-04-25T04:21:50;2.00;;;0.80;;
66707;SDS011;53622;0.000;0.000;2023-04-25T04:24:20;1.55;;;0.90;;
66707;SDS011;53622;0.000;0.000;2023-04-25T04:27:00;1.52;;;0.90;;
66707;SDS011;53622;0.000;0.000;2023-04-25T04:29:50;1.50;;;1.10;;
66707;SDS011;53622;0.000;0.000;2023-04-25T04:32:29;3.08;;;1.23;;
66707;SDS011;53622;0.000;0.000;2023-04-25T04:35:03;2.53;;;1.10;;
66707;SDS011;53622;0.000;0.000;2023-04-25T04:37:34;1.35;;;0.70;;
66707;SDS011;53622;0.000;0.000;2023-04-25T04:40:05;2.05;;;0.88;;
66707;SDS011;53622;0.000;0.000;2023-04-25T04:42:47;4.45;;;1.00;;
66707;SDS011;53622;0.000;0.000;2023-04-25T04:45:40;5.07;;;1.30;;
66707;SDS011;53622;0.000;0.000;2023-04-25T04:48:28;10.02;;;1.30;;
66707;SDS011;53622;0.000;0.000;2023-04-25T04:51:18;4.55;;;1.40;;
66707;SDS011;53622;0.000;0.000;2023-04-25T04:53:53;15.07;;;1.65;;
66707;SDS011;53622;0.000;0.000;2023-04-25T04:56:48;10.23;;;1.63;;
66707;SDS011;53622;0.000;0.000;2023-04-25T04:59:29;6.25;;;1.27;;
66707;SDS011;53622;0.000;0.000;2023-04-25T05:02:27;3.58;;;1.13;;
66707;SDS011;53622;0.000;0.000;2023-04-25T05:05:10;5.85;;;1.38;;
66707;SDS011;53622;0.000;0.000;2023-04-25T05:08:05;6.00;;;1.10;;
66707;SDS011;53622;0.000;0.000;2023-04-25T05:10:53;9.38;;;1.40;;
66707;SDS011;53622;0.000;0.000;2023-04-25T05:13:34;1.98;;;1.10;;
66707;SDS011;53622;0.000;0.000;2023-04-25T05:16:23;1.92;;;1.10;;
66707;SDS011;53622;0.000;0.000;2023-04-25T05:19:25;2.67;;;0.93;;
66707;SDS011;53622;0.000;0.000;2023-04-25T05:22:21;2.30;;;1.10;;
66707;SDS011;53622;0.000;0.000;2023-04-25T05:24:59;5.03;;;1.20;;
66707;SDS011;53622;0.000;0.000;2023-04-25T05:27:54;6.75;;;1.58;;
66707;SDS011;53622;0.000;0.000;2023-04-25T05:30:47;3.17;;;1.25;;
66707;SDS011;53622;0.000;0.000;2023-04-25T05:33:30;1.75;;;1.30;;
66707;SDS011;53622;0.000;0.000;2023-04-25T05:36:00;6.40;;;1.35;;
66707;SDS011;53622;0.000;0.000;2023-04-25T05:38:31;3.75;;;1.33;;
66707;SDS011;53622;0.000;0.000;2023-04-25T05:41:04;7.75;;;1.55;;
66707;SDS011;53622;0.000;0.000;2023-04-25T05:43:47;3.03;;;1.30;;
66707;SDS011;53622;0.000;0.000;2023-04-25T05:46:32;3.55;;;1.60;;
66707;SDS011;53622;0.000;0.000;2023-04-25T05:49:13;2.10;;;1.15;;
66707;SDS011;53622;0.000;0.000;2023-04-25T05:52:18;5.43;;;1.30;;
66707;SDS011;53622;0.000;0.000;2023-04-25T05:54:56;4.10;;;1.40;;
66707;SDS011;53622;0.000;0.000;2023-04-25T05:57:26;3.80;;;1.55;;
66707;SDS011;53622;0.000;0.000;2023-04-25T05:59:56;4.97;;;1.67;;
66707;SDS011;53622;0.000;0.000;2023-04-25T06:02:39;6.70;;;1.42;;
66707;SDS011;53622;0.000;0.000;2023-04-25T06:05:12;3.17;;;1.50;;
66707;SDS011;53622;0.000;0.000;2023-04-25T06:07:42;6.03;;;1.73;;
66707;SDS011;53622;0.000;0.000;2023-04-25T06:10:12;6.32;;;1.63;;
66707;SDS011;53622;0.000;0.000;2023-04-25T06:12:42;5.13;;;1.70;;
66707;SDS011;53622;0.000;0.000;2023-04-25T06:15:12;5.32;;;1.80;;
66707;SDS011;53622;0.000;0.000;2023-04-25T06:17:55;4.00;;;1.40;;
66707;SDS011;53622;0.000;0.000;2023-04-25T06:20:26;5.85;;;1.77;;
66707;SDS011;53622;0.000;0.000;2023-04-25T06:22:58;3.65;;;1.80;;
66707;SDS011;53622;0.000;0.000;2023-04-25T06:25:37;3.97;;;1.52;;
66707;SDS011;53622;0.000;0.000;2023-04-25T06:28:07;4.10;;;1.60;;
66707;SDS011;53622;0.000;0.000;2023-04-25T06:30:36;4.35;;;1.63;;
66707;SDS011;53622;0.000;0.000;2023-04-25T06:33:10;4.32;;;1.48;;
66707;SDS011;53622;0.000;0.000;2023-04-25T06:35:41;7.95;;;1.50;;
66707;SDS011;53622;0.000;0.000;2023-04-25T06:38:13;4.32;;;1.80;;
66707;SDS011;53622;0.000;0.000;2023-04-25T06:40:46;3.72;;;1.60;;
66707;SDS011;53622;0.000;0.000;2023-04-25T06:43:16;2.65;;;1.58;;
66707;SDS011;53622;0.000;0.000;2023-04-25T06:46:06;4.10;;;1.33;;
66707;SDS011;53622;0.000;0.000;2023-04-25T06:48:41;2.22;;;1.20;;
66707;SDS011;53622;0.000;0.000;2023-04-25T06:51:13;6.10;;;1.30;;
66707;SDS011;53622;0.000;0.000;2023-04-25T06:53:43;3.30;;;1.55;;
66707;SDS011;53622;0.000;0.000;2023-04-25T06:56:23;2.63;;;1.52;;
66707;SDS011;53622;0.000;0.000;2023-04-25T06:59:02;4.45;;;1.38;;
66707;SDS011;53622;0.000;0.000;2023-04-25T07:01:36;3.65;;;1.48;;
66707;SDS011;53622;0.000;0.000;2023-04-25T07:04:10;3.83;;;1.80;;
66707;SDS011;53622;0.000;0.000;2023-04-25T07:06:47;3.25;;;1.50;;
66707;SDS011;53622;0.000;0.000;2023-04-25T07:09:21;5.78;;;1.73;;
66707;SDS011;53622;0.000;0.000;2023-04-25T07:11:51;2.28;;;1.50;;
66707;SDS011;53622;0.000;0.000;2023-04-25T07:14:20;3.83;;;1.50;;
66707;SDS011;53622;0.000;0.000;2023-04-25T07:16:50;1.95;;;1.30;;
66707;SDS011;53622;0.000;0.000;2023-04-25T07:19:19;2.92;;;1.60;;
66707;SDS011;53622;0.000;0.000;2023-04-25T07:21:50;2.45;;;1.52;;
66707;SDS011;53622;0.000;0.000;2023-04-25T07:24:20;2.90;;;1.73;;
66707;SDS011;53622;0.000;0.000;2023-04-25T07:26:51;5.10;;;1.52;;
66707;SDS011;53622;0.000;0.000;2023-04-25T07:29:34;1.85;;;1.30;;
66707;SDS011;53622;0.000;0.000;2023-04-25T07:32:04;2.83;;;1.48;;
66707;SDS011;53622;0.000;0.000;2023-04-25T07:34:35;2.67;;;1.38;;
66707;SDS011;53622;0.000;0.000;2023-04-25T07:37:07;2.13;;;1.27;;
66707;SDS011;53622;0.000;0.000;2023-04-25T07:39:48;3.17;;;1.33;;
66707;SDS011;53622;0.000;0.000;2023-04-25T07:42:17;3.08;;;1.25;;
66707;SDS011;53622;0.000;0.000;2023-04-25T07:44:47;1.90;;;1.50;;
66707;SDS011;53622;0.000;0.000;2023-04-25T07:47:18;1.35;;;1.25;;
66707;SDS011;53622;0.000;0.000;2023-04-25T07:49:48;2.35;;;1.40;;
66707;SDS011;53622;0.000;0.000;2023-04-25T07:52:18;1.95;;;1.23;;
66707;SDS011;53622;0.000;0.000;2023-04-25T07:54:53;2.40;;;1.30;;
66707;SDS011;53622;0.000;0.000;2023-04-25T07:57:32;1.90;;;1.20;;
66707;SDS011;53622;0.000;0.000;2023-04-25T08:00:02;4.10;;;1.20;;
66707;SDS011;53622;0.000;0.000;2023-04-25T08:02:39;2.10;;;1.58;;
66707;SDS011;53622;0.000;0.000;2023-04-25T08:05:14;1.65;;;1.17;;
66707;SDS011;53622;0.000;0.000;2023-04-25T08:07:55;1.77;;;1.20;;
66707;SDS011;53622;0.000;0.000;2023-04-25T08:10:26;1.33;;;1.20;;
66707;SDS011;53622;0.000;0.000;2023-04-25T08:12:56;2.67;;;1.52;;
66707;SDS011;53622;0.000;0.000;2023-04-25T08:15:25;1.30;;;1.20;;
66707;SDS011;53622;0.000;0.000;2023-04-25T08:17:55;2.25;;;1.30;;
66707;SDS011;53622;0.000;0.000;2023-04-25T08:20:25;3.20;;;1.50;;
66707;SDS011;53622;0.000;0.000;2023-04-25T08:22:58;2.13;;;1.45;;
66707;SDS011;53622;0.000;0.000;2023-04-25T08:25:50;1.40;;;1.30;;
66707;SDS011;53622;0.000;0.000;2023-04-25T08:28:24;2.30;;;1.20;;
66707;SDS011;53622;0.000;0.000;2023-04-25T08:30:54;1.52;;;1.20;;
66707;SDS011;53622;0.000;0.000;2023-04-25T08:33:26;2.10;;;1.40;;
66707;SDS011;53622;0.000;0.000;2023-04-25T08:36:18;2.40;;;1.33;;
66707;SDS011;53622;0.000;0.000;2023-04-25T08:39:06;1.38;;;1.20;;
66707;SDS011;53622;0.000;0.000;2023-04-25T08:41:44;2.25;;;0.95;;
66707;SDS011;53622;0.000;0.000;2023-04-25T08:44:13;2.80;;;1.40;;
66707;SDS011;53622;0.000;0.000;2023-04-25T08:46:45;1.35;;;1.25;;
66707;SDS011;53622;0.000;0.000;2023-04-25T08:49:26;2.88;;;1.15;;
66707;SDS011;53622;0.000;0.000;2023-04-25T08:51:56;1.83;;;1.38;;
66707;SDS011;53622;0.000;0.000;2023-04-25T08:54:31;1.63;;;1.15;;
66707;SDS011;53622;0.000;0.000;2023-04-25T08:57:06;1.38;;;1.13;;
66707;SDS011;53622;0.000;0.000;2023-04-25T08:59:35;2.42;;;1.20;;
66707;SDS011;53622;0.000;0.000;2023-04-25T09:02:06;2.88;;;1.40;;
66707;SDS011;53622;0.000;0.000;2023-04-25T09:04:37;1.60;;;1.15;;
66707;SDS011;53622;0.000;0.000;2023-04-25T09:07:07;1.85;;;1.35;;
66707;SDS011;53622;0.000;0.000;2023-04-25T09:09:39;1.77;;;1.15;;
66707;SDS011;53622;0.000;0.000;2023-04-25T09:12:09;1.77;;;1.40;;
66707;SDS011;53622;0.000;0.000;2023-04-25T09:14:39;2.17;;;1.30;;
66707;SDS011;53622;0.000;0.000;2023-04-25T09:17:25;2.92;;;1.50;;
66707;SDS011;53622;0.000;0.000;2023-04-25T09:20:04;2.15;;;1.23;;
66707;SDS011;53622;0.000;0.000;2023-04-25T09:22:38;1.10;;;1.00;;
66707;SDS011;53622;0.000;0.000;2023-04-25T09:25:10;1.20;;;1.10;;
66707;SDS011;53622;0.000;0.000;2023-04-25T09:27:49;1.60;;;1.30;;
66707;SDS011;53622;0.000;0.000;2023-04-25T09:30:30;1.98;;;1.30;;
66707;SDS011;53622;0.000;0.000;2023-04-25T09:33:15;1.73;;;1.35;;
66707;SDS011;53622;0.000;0.000;2023-04-25T09:35:48;2.67;;;1.40;;
66707;SDS011;53622;0.000;0.000;2023-04-25T09:38:43;1.55;;;1.30;;
66707;SDS011;53622;0.000;0.000;2023-04-25T09:41:28;2.08;;;1.50;;
66707;SDS011;53622;0.000;0.000;2023-04-25T09:44:00;1.63;;;1.40;;
66707;SDS011;53622;0.000;0.000;2023-04-25T09:46:37;1.60;;;1.50;;
66707;SDS011;53622;0.000;0.000;2023-04-25T09:49:12;1.40;;;1.30;;
66707;SDS011;53622;0.000;0.000;2023-04-25T09:52:03;1.80;;;1.25;;
66707;SDS011;53622;0.000;0.000;2023-04-25T09:54:51;1.80;;;1.20;;
66707;SDS011;53622;0.000;0.000;2023-04-25T09:57:29;1.70;;;1.20;;
66707;SDS011;53622;0.000;0.000;2023-04-25T10:00:00;1.48;;;1.10;;
66707;SDS011;53622;0.000;0.000;2023-04-25T10:02:40;1.83;;;1.23;;
66707;SDS011;53622;0.000;0.000;2023-04-25T10:05:41;1.70;;;1.40;;
66707;SDS011;53622;0.000;0.000;2023-04-25T10:08:11;1.92;;;1.30;;
66707;SDS011;53622;0.000;0.000;2023-04-25T10:10:43;1.25;;;1.15;;
66707;SDS011;53622;0.000;0.000;2023-04-25T10:13:15;2.08;;;1.52;;
66707;SDS011;53622;0.000;0.000;2023-04-25T10:15:45;1.42;;;1.33;;
66707;SDS011;53622;0.000;0.000;2023-04-25T10:18:15;2.17;;;1.30;;
66707;SDS011;53622;0.000;0.000;2023-04-25T10:20:47;1.75;;;1.08;;
66707;SDS011;53622;0.000;0.000;2023-04-25T10:23:20;1.60;;;1.33;;
66707;SDS011;53622;0.000;0.000;2023-04-25T10:25:49;1.27;;;1.20;;
66707;SDS011;53622;0.000;0.000;2023-04-25T10:28:21;1.33;;;1.23;;
66707;SDS011;53622;0.000;0.000;2023-04-25T10:30:57;2.08;;;1.52;;
66707;SDS011;53622;0.000;0.000;2023-04-25T10:33:35;2.05;;;1.17;;
66707;SDS011;53622;0.000;0.000;2023-04-25T10:36:09;1.40;;;1.20;;
66707;SDS011;53622;0.000;0.000;2023-04-25T10:38:39;1.42;;;1.30;;
66707;SDS011;53622;0.000;0.000;2023-04-25T10:41:11;1.73;;;1.48;;
66707;SDS011;53622;0.000;0.000;2023-04-25T10:43:42;1.45;;;1.35;;
66707;SDS011;53622;0.000;0.000;2023-04-25T10:46:13;2.50;;;1.42;;
66707;SDS011;53622;0.000;0.000;2023-04-25T10:48:47;1.17;;;1.08;;
66707;SDS011;53622;0.000;0.000;2023-04-25T10:51:18;1.52;;;1.40;;
66707;SDS011;53622;0.000;0.000;2023-04-25T10:53:59;1.30;;;1.20;;
66707;SDS011;53622;0.000;0.000;2023-04-25T10:56:29;1.58;;;1.42;;
66707;SDS011;53622;0.000;0.000;2023-04-25T10:59:05;1.58;;;1.48;;
66707;SDS011;53622;0.000;0.000;2023-04-25T11:01:38;2.70;;;1.40;;
66707;SDS011;53622;0.000;0.000;2023-04-25T11:04:21;1.42;;;1.33;;
66707;SDS011;53622;0.000;0.000;2023-04-25T11:07:00;1.20;;;1.10;;
66707;SDS011;53622;0.000;0.000;2023-04-25T11:09:35;2.25;;;1.23;;
66707;SDS011;53622;0.000;0.000;2023-04-25T11:12:07;1.40;;;1.30;;
66707;SDS011;53622;0.000;0.000;2023-04-25T11:14:40;2.00;;;1.80;;
66707;SDS011;53622;0.000;0.000;2023-04-25T11:17:10;1.52;;;1.30;;
66707;SDS011;53622;0.000;0.000;2023-04-25T11:19:39;1.42;;;1.33;;
66707;SDS011;53622;0.000;0.000;2023-04-25T11:22:09;1.25;;;1.15;;
66707;SDS011;53622;0.000;0.000;2023-04-25T11:24:39;2.35;;;1.20;;
66707;SDS011;53622;0.000;0.000;2023-04-25T11:27:08;1.70;;;1.42;;
66707;SDS011;53622;0.000;0.000;2023-04-25T11:29:37;1.23;;;1.13;;
66707;SDS011;53622;0.000;0.000;2023-04-25T11:32:08;1.50;;;1.40;;
66707;SDS011;53622;0.000;0.000;2023-04-25T11:34:38;1.58;;;1.48;;
66707;SDS011;53622;0.000;0.000;2023-04-25T11:37:07;2.50;;;1.55;;
66707;SDS011;53622;0.000;0.000;2023-04-25T11:39:42;2.15;;;1.52;;
66707;SDS011;53622;0.000;0.000;2023-04-25T11:42:15;1.58;;;1.27;;
66707;SDS011;53622;0.000;0.000;2023-04-25T11:44:45;1.55;;;1.45;;
66707;SDS011;53622;0.000;0.000;2023-04-25T11:47:16;1.50;;;1.40;;
66707;SDS011;53622;0.000;0.000;2023-04-25T11:49:45;1.40;;;1.30;;
66707;SDS011;53622;0.000;0.000;2023-04-25T11:52:15;2.00;;;1.30;;
66707;SDS011;53622;0.000;0.000;2023-04-25T11:54:44;1.55;;;1.38;;
66707;SDS011;53622;0.000;0.000;2023-04-25T11:57:13;1.40;;;1.23;;
66707;SDS011;53622;0.000;0.000;2023-04-25T11:59:43;1.92;;;1.38;;
66707;SDS011;53622;0.000;0.000;2023-04-25T12:02:24;1.58;;;1.23;;
66707;SDS011;53622;0.000;0.000;2023-04-25T12:04:58;1.20;;;1.10;;
66707;SDS011;53622;0.000;0.000;2023-04-25T12:07:48;1.30;;;1.20;;
66707;SDS011;53622;0.000;0.000;2023-04-25T12:10:17;1.50;;;1.40;;
66707;SDS011;53622;0.000;0.000;2023-04-25T12:12:47;1.30;;;1.20;;
66707;SDS011;53622;0.000;0.000;2023-04-25T12:15:18;1.60;;;1.23;;
66707;SDS011;53622;0.000;0.000;2023-04-25T12:17:53;1.40;;;1.30;;
66707;SDS011;53622;0.000;0.000;2023-04-25T12:20:24;1.45;;;1.25;;
66707;SDS011;53622;0.000;0.000;2023-04-25T12:22:54;1.15;;;1.08;;
66707;SDS011;53622;0.000;0.000;2023-04-25T12:25:36;1.60;;;1.50;;
66707;SDS011;53622;0.000;0.000;2023-04-25T12:28:09;1.60;;;1.40;;
66707;SDS011;53622;0.000;0.000;2023-04-25T12:30:53;1.40;;;1.23;;
66707;SDS011;53622;0.000;0.000;2023-04-25T12:33:25;1.77;;;1.40;;
66707;SDS011;53622;0.000;0.000;2023-04-25T12:35:55;1.90;;;1.08;;
66707;SDS011;53622;0.000;0.000;2023-04-25T12:38:25;1.55;;;1.45;;
66707;SDS011;53622;0.000;0.000;2023-04-25T12:40:57;1.35;;;1.25;;
66707;SDS011;53622;0.000;0.000;2023-04-25T12:43:27;1.63;;;1.30;;
66707;SDS011;53622;0.000;0.000;2023-04-25T12:45:56;1.40;;;1.30;;
66707;SDS011;53622;0.000;0.000;2023-04-25T12:48:27;1.30;;;1.20;;
66707;SDS011;53622;0.000;0.000;2023-04-25T12:50:56;1.17;;;1.08;;
66707;SDS011;53622;0.000;0.000;2023-04-25T12:53:26;1.38;;;1.20;;
66707;SDS011;53622;0.000;0.000;2023-04-25T12:55:55;1.52;;;1.20;;
66707;SDS011;53622;0.000;0.000;2023-04-25T12:58:24;1.00;;;1.00;;
66707;SDS011;53622;0.000;0.000;2023-04-25T13:00:54;1.27;;;1.17;;
66707;SDS011;53622;0.000;0.000;2023-04-25T13:03:23;1.40;;;1.30;;
66707;SDS011;53622;0.000;0.000;2023-04-25T13:05:54;1.30;;;1.20;;
66707;SDS011;53622;0.000;0.000;2023-04-25T13:08:24;1.50;;;1.40;;
66707;SDS011;53622;0.000;0.000;2023-04-25T13:10:53;1.42;;;1.33;;
66707;SDS011;53622;0.000;0.000;2023-04-25T13:13:23;1.30;;;1.20;;
66707;SDS011;53622;0.000;0.000;2023-04-25T13:15:54;1.40;;;1.30;;
66707;SDS011;53622;0.000;0.000;2023-04-25T13:18:24;1.10;;;1.00;;
66707;SDS011;53622;0.000;0.000;2023-04-25T13:20:55;1.83;;;1.30;;
66707;SDS011;53622;0.000;0.000;2023-04-25T13:23:26;1.38;;;1.27;;
66707;SDS011;53622;0.000;0.000;2023-04-25T13:25:55;1.48;;;1.20;;
66707;SDS011;53622;0.000;0.000;2023-04-25T13:28:25;1.15;;;1.05;;
66707;SDS011;53622;0.000;0.000;2023-04-25T13:30:54;1.33;;;1.20;;
66707;SDS011;53622;0.000;0.000;2023-04-25T13:33:24;1.33;;;1.23;;
66707;SDS011;53622;0.000;0.000;2023-04-25T13:35:53;1.15;;;1.13;;
66707;SDS011;53622;0.000;0.000;2023-04-25T13:38:24;1.20;;;1.10;;
66707;SDS011;53622;0.000;0.000;2023-04-25T13:40:54;1.40;;;1.30;;
66707;SDS011;53622;0.000;0.000;2023-04-25T13:43:23;1.25;;;1.13;;
66707;SDS011;53622;0.000;0.000;2023-04-25T13:45:52;1.30;;;1.20;;
66707;SDS011;53622;0.000;0.000;2023-04-25T13:48:24;1.83;;;1.48;;
66707;SDS011;53622;0.000;0.000;2023-04-25T13:50:53;1.27;;;1.17;;
66707;SDS011;53622;0.000;0.000;2023-04-25T13:53:24;1.15;;;1.10;;
66707;SDS011;53622;0.000;0.000;2023-04-25T13:55:53;1.15;;;1.10;;
66707;SDS011;53622;0.000;0.000;2023-04-25T13:58:22;1.05;;;1.00;;
66707;SDS011;53622;0.000;0.000;2023-04-25T14:00:52;1.45;;;1.25;;
66707;SDS011;53622;0.000;0.000;2023-04-25T14:03:21;1.15;;;1.10;;
66707;SDS011;53622;0.000;0.000;2023-04-25T14:05:51;1.40;;;1.30;;
66707;SDS011;53622;0.000;0.000;2023-04-25T14:08:20;1.20;;;1.10;;
66707;SDS011;53622;0.000;0.000;2023-04-25T14:10:51;1.05;;;1.02;;
66707;SDS011;53622;0.000;0.000;2023-04-25T14:13:20;1.20;;;1.10;;
66707;SDS011;53622;0.000;0.000;2023-04-25T14:15:50;1.30;;;1.20;;
66707;SDS011;53622;0.000;0.000;2023-04-25T14:18:19;1.30;;;1.20;;
66707;SDS011;53622;0.000;0.000;2023-04-25T14:20:49;1.15;;;1.05;;
66707;SDS011;53622;0.000;0.000;2023-04-25T14:23:18;1.10;;;1.00;;
66707;SDS011;53622;0.000;0.000;2023-04-25T14:25:47;1.55;;;1.45;;
66707;SDS011;53622;0.000;0.000;2023-04-25T14:28:18;1.25;;;1.15;;
66707;SDS011;53622;0.000;0.000;2023-04-25T14:30:48;2.38;;;1.40;;
66707;SDS011;53622;0.000;0.000;2023-04-25T14:33:17;1.30;;;1.20;;
66707;SDS011;53622;0.000;0.000;2023-04-25T14:35:47;1.13;;;1.10;;
66707;SDS011;53622;0.000;0.000;2023-04-25T14:38:16;1.30;;;1.20;;
66707;SDS011;53622;0.000;0.000;2023-04-25T14:40:50;1.15;;;1.05;;
66707;SDS011;53622;0.000;0.000;2023-04-25T14:43:22;1.35;;;1.25;;
66707;SDS011;53622;0.000;0.000;2023-04-25T14:45:51;1.00;;;1.00;;
66707;SDS011;53622;0.000;0.000;2023-04-25T14:48:24;1.02;;;1.02;;
66707;SDS011;53622;0.000;0.000;2023-04-25T14:50:54;1.05;;;1.00;;
66707;SDS011;53622;0.000;0.000;2023-04-25T14:53:23;2.13;;;1.33;;
66707;SDS011;53622;0.000;0.000;2023-04-25T14:55:53;1.13;;;1.00;;
66707;SDS011;53622;0.000;0.000;2023-04-25T14:58:24;1.50;;;1.10;;
66707;SDS011;53622;0.000;0.000;2023-04-25T15:00:54;1.20;;;1.10;;
66707;SDS011;53622;0.000;0.000;2023-04-25T15:03:23;1.13;;;1.08;;
66707;SDS011;53622;0.000;0.000;2023-04-25T15:05:54;1.25;;;0.95;;
66707;SDS011;53622;0.000;0.000;2023-04-25T15:08:23;1.40;;;1.10;;
66707;SDS011;53622;0.000;0.000;2023-04-25T15:10:53;1.85;;;1.20;;
66707;SDS011;53622;0.000;0.000;2023-04-25T15:13:24;1.40;;;1.30;;
66707;SDS011;53622;0.000;0.000;2023-04-25T15:15:53;1.10;;;1.00;;
66707;SDS011;53622;0.000;0.000;2023-04-25T15:18:22;1.08;;;1.02;;
66707;SDS011;53622;0.000;0.000;2023-04-25T15:20:52;1.15;;;1.05;;
66707;SDS011;53622;0.000;0.000;2023-04-25T15:23:22;1.20;;;1.10;;
66707;SDS011;53622;0.000;0.000;2023-04-25T15:25:54;1.08;;;1.00;;
66707;SDS011;53622;0.000;0.000;2023-04-25T15:28:25;3.22;;;1.17;;
66707;SDS011;53622;0.000;0.000;2023-04-25T15:30:54;2.60;;;1.02;;
66707;SDS011;53622;0.000;0.000;2023-04-25T15:33:24;1.25;;;0.98;;
66707;SDS011;53622;0.000;0.000;2023-04-25T15:35:54;1.80;;;1.10;;
66707;SDS011;53622;0.000;0.000;2023-04-25T15:38:24;3.10;;;1.15;;